createdAt,value
2018-05-16T00:01:56.615Z,15.40
2018-05-16T00:04:59.942Z,15.36
2018-05-16T00:08:03.243Z,15.40
2018-05-16T00:11:07.457Z,15.45
2018-05-16T00:14:11.670Z,15.43
2018-05-16T00:17:14.971Z,15.38
2018-05-16T00:20:19.129Z,15.37
2018-05-16T00:23:22.453Z,15.43
2018-05-16T00:26:25.816Z,15.47
2018-05-16T00:29:29.137Z,15.44
2018-05-16T00:32:32.485Z,15.40
2018-05-16T00:35:35.796Z,15.41
2018-05-16T00:38:39.865Z,15.43
2018-05-16T00:41:43.219Z,15.47
2018-05-16T00:44:46.559Z,15.48
2018-05-16T00:47:49.908Z,15.49
2018-05-16T00:51:10.994Z,15.49
2018-05-16T00:54:14.304Z,15.43
2018-05-16T00:57:18.501Z,15.35
2018-05-16T01:00:21.946Z,15.27
2018-05-16T01:03:25.301Z,15.20
2018-05-16T01:06:28.629Z,15.15
2018-05-16T01:09:32.103Z,15.12
2018-05-16T01:12:36.734Z,15.13
2018-05-16T01:15:40.838Z,15.12
2018-05-16T01:18:44.212Z,15.15
2018-05-16T01:21:47.575Z,15.13
2018-05-16T01:24:51.014Z,15.09
2018-05-16T01:27:54.359Z,15.09
2018-05-16T01:30:57.726Z,15.03
2018-05-16T01:34:01.838Z,14.96
2018-05-16T01:37:05.181Z,14.88
2018-05-16T01:40:08.524Z,14.83
2018-05-16T01:43:13.345Z,14.79
2018-05-16T01:46:16.741Z,14.77
2018-05-16T01:49:20.787Z,14.74
2018-05-16T01:52:24.884Z,14.73
2018-05-16T01:55:28.262Z,14.72
2018-05-16T01:58:31.634Z,14.70
2018-05-16T02:01:34.952Z,14.69
2018-05-16T02:04:38.305Z,14.71
2018-05-16T02:07:41.654Z,14.67
2018-05-16T02:10:44.965Z,14.66
2018-05-16T02:13:49.151Z,14.62
2018-05-16T02:16:52.561Z,14.53
2018-05-16T02:19:55.880Z,14.47
2018-05-16T02:22:59.250Z,14.45
2018-05-16T02:26:02.569Z,14.38
2018-05-16T02:29:07.397Z,14.31
2018-05-16T02:32:11.601Z,14.27
2018-05-16T02:35:15.029Z,14.20
2018-05-16T02:38:19.192Z,14.14
2018-05-16T02:41:22.611Z,14.07
2018-05-16T02:44:26.018Z,14.03
2018-05-16T02:47:29.378Z,13.99
2018-05-16T02:50:32.800Z,13.98
2018-05-16T02:53:36.218Z,13.99
2018-05-16T02:56:39.582Z,13.96
2018-05-16T02:59:42.916Z,13.92
2018-05-16T03:02:46.277Z,13.90
2018-05-16T03:05:49.789Z,13.91
2018-05-16T03:08:53.171Z,13.88
2018-05-16T03:11:56.582Z,13.91
2018-05-16T03:14:59.927Z,13.91
2018-05-16T03:18:03.282Z,13.88
2018-05-16T03:21:06.625Z,13.84
2018-05-16T03:24:09.985Z,13.84
2018-05-16T03:27:13.414Z,13.88
2018-05-16T03:30:17.533Z,13.92
2018-05-16T03:33:20.866Z,13.86
2018-05-16T03:36:24.241Z,13.80
2018-05-16T03:39:27.552Z,13.79
2018-05-16T03:42:30.901Z,13.78
2018-05-16T03:45:34.963Z,13.75
2018-05-16T03:48:38.335Z,13.70
2018-05-16T03:51:41.635Z,13.72
2018-05-16T03:54:45.021Z,13.75
2018-05-16T04:01:46.927Z,13.81
2018-05-16T04:04:50.241Z,13.81
2018-05-16T04:07:53.606Z,13.86
2018-05-16T04:10:56.920Z,13.89
2018-05-16T04:14:00.263Z,13.90
2018-05-16T04:17:03.610Z,13.97
2018-05-16T04:20:07.038Z,14.05
2018-05-16T04:23:10.442Z,14.14
2018-05-16T04:26:13.848Z,14.27
2018-05-16T04:29:17.161Z,14.40
2018-05-16T04:32:21.278Z,14.54
2018-05-16T04:35:25.400Z,14.66
2018-05-16T04:38:29.583Z,14.79
2018-05-16T04:41:32.893Z,14.91
2018-05-16T04:44:37.011Z,15.04
2018-05-16T04:47:41.102Z,15.16
2018-05-16T04:50:44.456Z,15.28
2018-05-16T04:53:47.792Z,15.41
2018-05-16T04:56:51.154Z,15.53
2018-05-16T04:59:54.446Z,15.65
2018-05-16T05:02:57.833Z,15.75
2018-05-16T05:06:01.192Z,15.85
2018-05-16T05:09:04.579Z,15.94
2018-05-16T05:12:07.985Z,16.02
2018-05-16T05:15:11.337Z,16.08
2018-05-16T05:18:14.690Z,16.14
2018-05-16T05:21:18.869Z,16.19
2018-05-16T05:24:22.210Z,16.25
2018-05-16T05:27:26.325Z,16.33
2018-05-16T05:30:30.401Z,16.41
2018-05-16T05:33:33.754Z,16.49
2018-05-16T05:36:37.095Z,16.59
2018-05-16T05:39:40.447Z,16.66
2018-05-16T05:42:43.777Z,16.74
2018-05-16T05:45:47.198Z,16.80
2018-05-16T05:48:50.536Z,16.86
2018-05-16T05:51:53.998Z,16.92
2018-05-16T05:54:57.393Z,16.99
2018-05-16T05:58:00.789Z,17.09
2018-05-16T06:01:04.165Z,17.15
2018-05-16T06:04:07.526Z,17.19
2018-05-16T06:07:10.843Z,17.24
2018-05-16T06:10:14.190Z,17.29
2018-05-16T06:13:18.294Z,17.36
2018-05-16T06:16:21.652Z,17.39
2018-05-16T06:19:25.133Z,17.40
2018-05-16T06:22:28.434Z,17.40
2018-05-16T06:25:31.763Z,17.42
2018-05-16T06:28:35.133Z,17.43
2018-05-16T06:31:38.462Z,17.67
2018-05-16T06:34:41.868Z,17.60
2018-05-16T06:37:45.149Z,17.51
2018-05-16T06:40:48.521Z,17.56
2018-05-16T06:43:51.959Z,17.53
2018-05-16T06:46:55.350Z,17.52
2018-05-16T06:49:58.669Z,17.55
2018-05-16T06:53:02.853Z,17.59
2018-05-16T06:56:06.142Z,17.64
2018-05-16T06:59:09.501Z,17.69
2018-05-16T07:02:12.831Z,17.78
2018-05-16T07:05:16.177Z,17.90
2018-05-16T07:08:20.383Z,18.08
2018-05-16T07:11:24.502Z,18.24
2018-05-16T07:14:28.585Z,18.39
2018-05-16T07:17:31.949Z,18.52
2018-05-16T07:20:35.293Z,18.63
2018-05-16T07:23:39.511Z,18.74
2018-05-16T07:26:42.905Z,18.81
2018-05-16T07:29:46.297Z,18.90
2018-05-16T07:32:49.616Z,18.99
2018-05-16T07:35:53.737Z,19.11
2018-05-16T07:38:57.921Z,19.22
2018-05-16T07:42:01.263Z,19.36
2018-05-16T07:45:04.640Z,19.53
2018-05-16T07:48:08.775Z,19.75
2018-05-16T07:51:12.202Z,19.95
2018-05-16T07:54:15.483Z,20.09
2018-05-16T07:57:18.811Z,20.22
2018-05-16T08:00:22.161Z,20.34
2018-05-16T08:03:25.478Z,20.47
2018-05-16T08:06:28.841Z,20.51
2018-05-16T08:09:32.930Z,20.59
2018-05-16T08:12:36.239Z,20.68
2018-05-16T08:15:39.553Z,20.68
2018-05-16T08:18:42.888Z,20.64
2018-05-16T08:21:46.285Z,20.61
2018-05-16T08:24:50.370Z,20.68
2018-05-16T08:27:53.720Z,20.77
2018-05-16T08:30:57.098Z,20.87
2018-05-16T08:34:00.526Z,20.95
2018-05-16T08:37:03.914Z,21.03
2018-05-16T08:40:07.237Z,21.13
2018-05-16T08:43:11.365Z,21.17
2018-05-16T08:46:14.678Z,21.17
2018-05-16T08:49:18.005Z,21.17
2018-05-16T08:52:21.323Z,21.20
2018-05-16T08:55:24.657Z,21.21
2018-05-16T08:58:28.089Z,21.19
2018-05-16T09:01:31.402Z,21.24
2018-05-16T09:04:35.526Z,21.28
2018-05-16T09:07:38.847Z,21.28
2018-05-16T09:10:42.183Z,21.34
2018-05-16T09:13:45.674Z,21.36
2018-05-16T09:16:48.961Z,21.32
2018-05-16T09:19:52.347Z,21.36
2018-05-16T09:22:55.680Z,21.37
2018-05-16T09:25:58.996Z,21.34
2018-05-16T09:29:02.338Z,21.27
2018-05-16T09:32:05.664Z,21.35
2018-05-16T09:35:09.001Z,21.44
2018-05-16T09:38:13.192Z,21.52
2018-05-16T09:41:16.575Z,21.60
2018-05-16T09:44:19.896Z,21.64
2018-05-16T09:47:23.261Z,21.71
2018-05-16T09:50:27.484Z,21.76
2018-05-16T09:53:30.811Z,21.77
2018-05-16T09:56:34.135Z,21.81
2018-05-16T09:59:37.462Z,21.86
2018-05-16T10:02:40.789Z,21.89
2018-05-16T10:05:44.133Z,21.86
2018-05-16T10:08:47.457Z,21.95
2018-05-16T10:11:50.790Z,21.96
2018-05-16T10:14:54.114Z,22.04
2018-05-16T10:17:57.438Z,22.11
2018-05-16T10:21:00.832Z,22.19
2018-05-16T10:24:04.453Z,22.31
2018-05-16T10:27:07.908Z,22.38
2018-05-16T10:30:11.207Z,22.48
2018-05-16T10:33:14.566Z,22.56
2018-05-16T10:36:17.895Z,22.60
2018-05-16T10:39:21.217Z,22.65
2018-05-16T10:42:24.559Z,22.70
2018-05-16T10:45:27.847Z,22.90
2018-05-16T10:48:32.005Z,23.04
2018-05-16T10:51:35.623Z,23.14
2018-05-16T10:54:39.514Z,23.22
2018-05-16T10:57:42.845Z,23.23
2018-05-16T11:00:46.183Z,23.28
2018-05-16T11:03:50.284Z,23.47
2018-05-16T11:06:54.378Z,23.84
2018-05-16T11:09:57.717Z,24.24
2018-05-16T11:13:01.770Z,24.59
2018-05-16T11:16:05.143Z,24.76
2018-05-16T11:19:08.487Z,24.88
2018-05-16T11:22:11.796Z,25.11
2018-05-16T11:25:15.222Z,25.12
2018-05-16T11:28:18.585Z,24.97
2018-05-16T11:31:21.991Z,24.87
2018-05-16T11:34:25.322Z,24.86
2018-05-16T11:37:28.651Z,24.90
2018-05-16T11:40:32.052Z,24.92
2018-05-16T11:43:35.494Z,24.91
2018-05-16T11:46:39.577Z,25.05
2018-05-16T11:49:42.978Z,25.27
2018-05-16T11:52:46.301Z,25.46
2018-05-16T11:55:50.505Z,25.80
2018-05-16T11:58:54.688Z,25.75
2018-05-16T12:01:58.002Z,25.73
2018-05-16T12:05:01.475Z,25.66
2018-05-16T12:08:05.537Z,25.79
2018-05-16T12:11:09.717Z,25.89
2018-05-16T12:14:12.996Z,25.95
2018-05-16T12:17:16.301Z,25.79
2018-05-16T12:20:19.772Z,25.58
2018-05-16T12:23:23.088Z,25.34
2018-05-16T12:26:26.497Z,25.09
2018-05-16T12:29:30.855Z,25.00
2018-05-16T12:32:35.049Z,25.10
2018-05-16T12:35:38.438Z,25.11
2018-05-16T12:38:41.855Z,25.21
2018-05-16T12:41:45.184Z,25.37
2018-05-16T12:44:48.531Z,25.48
2018-05-16T12:47:51.934Z,25.58
2018-05-16T12:50:55.338Z,25.67
2018-05-16T12:54:00.262Z,25.56
2018-05-16T12:57:03.670Z,25.63
2018-05-16T13:00:07.006Z,25.76
2018-05-16T13:03:10.352Z,25.70
2018-05-16T13:06:13.699Z,25.58
2018-05-16T13:09:17.105Z,25.64
2018-05-16T13:12:20.441Z,25.81
2018-05-16T13:15:24.536Z,25.54
2018-05-16T13:18:27.945Z,25.35
2018-05-16T13:21:31.310Z,25.02
2018-05-16T13:24:35.362Z,24.90
2018-05-16T13:27:38.687Z,24.97
2018-05-16T13:30:42.804Z,25.23
2018-05-16T13:33:46.979Z,25.48
2018-05-16T13:36:50.313Z,25.73
2018-05-16T13:39:54.500Z,25.95
2018-05-16T13:42:58.565Z,26.18
2018-05-16T13:46:02.061Z,26.45
2018-05-16T13:49:05.392Z,26.45
2018-05-16T13:52:08.714Z,26.21
2018-05-16T13:55:12.027Z,26.08
2018-05-16T13:58:15.368Z,25.95
2018-05-16T14:01:18.668Z,25.87
2018-05-16T14:04:22.030Z,25.85
2018-05-16T14:07:25.347Z,25.92
2018-05-16T14:10:28.790Z,26.06
2018-05-16T14:13:32.149Z,26.19
2018-05-16T14:16:35.478Z,26.40
2018-05-16T14:19:38.865Z,26.68
2018-05-16T14:22:42.184Z,26.86
2018-05-16T14:25:45.518Z,26.98
2018-05-16T14:28:48.872Z,26.96
2018-05-16T14:31:52.204Z,27.02
2018-05-16T14:34:55.538Z,26.89
2018-05-16T14:37:58.871Z,26.93
2018-05-16T14:41:02.990Z,26.91
2018-05-16T14:44:07.185Z,26.96
2018-05-16T14:47:10.529Z,26.94
2018-05-16T14:50:13.878Z,27.10
2018-05-16T14:53:17.200Z,27.26
2018-05-16T14:56:21.315Z,27.32
2018-05-16T14:59:25.501Z,27.27
2018-05-16T15:02:28.801Z,27.30
2018-05-16T15:05:33.023Z,27.32
2018-05-16T15:08:36.418Z,27.51
2018-05-16T15:11:39.763Z,27.67
2018-05-16T15:14:43.095Z,27.97
2018-05-16T15:17:46.453Z,28.27
2018-05-16T15:20:49.820Z,28.61
2018-05-16T15:23:53.897Z,28.85
2018-05-16T15:26:57.189Z,28.88
2018-05-16T15:30:00.596Z,29.01
2018-05-16T15:33:04.004Z,28.56
2018-05-16T15:36:08.068Z,28.56
2018-05-16T15:39:11.402Z,28.57
2018-05-16T15:42:14.801Z,28.41
2018-05-16T15:45:18.169Z,28.01
2018-05-16T15:48:21.497Z,27.86
2018-05-16T15:51:24.852Z,28.03
2018-05-16T15:54:28.309Z,27.84
2018-05-16T15:57:31.700Z,27.75
2018-05-16T16:00:35.052Z,27.68
2018-05-16T16:03:38.347Z,27.62
2018-05-16T16:06:41.741Z,27.64
2018-05-16T16:09:45.039Z,27.71
2018-05-16T16:12:48.398Z,27.64
2018-05-16T16:15:52.550Z,27.58
2018-05-16T16:18:55.890Z,27.17
2018-05-16T16:21:59.247Z,27.02
2018-05-16T16:25:02.560Z,27.20
2018-05-16T16:28:05.904Z,27.20
2018-05-16T16:31:10.000Z,26.85
2018-05-16T16:34:13.337Z,26.95
2018-05-16T16:37:16.788Z,27.06
2018-05-16T16:40:20.187Z,27.03
2018-05-16T16:43:23.505Z,27.30
2018-05-16T16:46:27.634Z,27.38
2018-05-16T16:49:31.011Z,27.19
2018-05-16T16:52:35.119Z,27.12
2018-05-16T16:55:39.239Z,27.25
2018-05-16T16:58:43.332Z,27.09
2018-05-16T17:01:46.687Z,26.93
2018-05-16T17:04:50.084Z,26.94
2018-05-16T17:07:53.446Z,26.91
2018-05-16T17:10:57.634Z,26.80
2018-05-16T17:14:01.020Z,25.94
2018-05-16T17:17:04.365Z,25.10
2018-05-16T17:20:08.484Z,23.99
2018-05-16T17:23:11.824Z,23.27
2018-05-16T17:26:15.171Z,22.64
2018-05-16T17:29:19.245Z,22.13
2018-05-16T17:32:22.603Z,21.81
2018-05-16T17:35:25.960Z,21.55
2018-05-16T17:38:30.072Z,21.41
2018-05-16T17:41:33.447Z,21.22
2018-05-16T17:44:36.779Z,21.01
2018-05-16T17:47:40.882Z,20.83
2018-05-16T17:50:44.973Z,20.68
2018-05-16T17:53:48.455Z,20.45
2018-05-16T17:56:52.618Z,20.30
2018-05-16T17:59:56.857Z,20.14
2018-05-16T18:03:00.183Z,19.98
2018-05-16T18:06:03.559Z,19.84
2018-05-16T18:09:06.898Z,19.79
2018-05-16T18:12:10.249Z,19.65
2018-05-16T18:15:31.695Z,19.45
2018-05-16T18:18:35.113Z,19.35
2018-05-16T18:21:38.458Z,19.24
2018-05-16T18:24:41.789Z,19.06
2018-05-16T18:27:45.132Z,18.95
2018-05-16T18:30:49.243Z,18.83
2018-05-16T18:33:53.424Z,18.74
2018-05-16T18:36:56.769Z,18.53
2018-05-16T18:40:00.086Z,18.36
2018-05-16T18:43:03.528Z,18.28
2018-05-16T18:46:07.220Z,18.21
2018-05-16T18:49:10.700Z,17.92
2018-05-16T18:52:14.129Z,17.80
2018-05-16T18:55:17.474Z,17.70
2018-05-16T18:58:20.830Z,17.58
2018-05-16T19:01:24.190Z,17.41
2018-05-16T19:04:27.626Z,17.27
2018-05-16T19:07:31.000Z,17.20
2018-05-16T19:10:34.361Z,17.03
2018-05-16T19:13:37.686Z,16.89
2018-05-16T19:16:41.105Z,16.78
2018-05-16T19:19:44.520Z,16.68
2018-05-16T19:22:47.861Z,16.65
2018-05-16T19:25:51.153Z,16.50
2018-05-16T19:28:54.517Z,16.42
2018-05-16T19:31:58.629Z,16.30
2018-05-16T19:35:02.867Z,16.21
2018-05-16T19:38:06.220Z,16.16
2018-05-16T19:41:09.552Z,15.89
2018-05-16T19:44:13.643Z,15.84
2018-05-16T19:47:17.035Z,15.60
2018-05-16T19:50:20.414Z,15.51
2018-05-16T19:53:23.834Z,15.38
2018-05-16T19:56:27.216Z,15.31
2018-05-16T19:59:30.619Z,15.25
2018-05-16T20:02:33.970Z,15.21
2018-05-16T20:05:37.329Z,15.02
2018-05-16T20:08:40.661Z,14.84
2018-05-16T20:11:44.044Z,14.68
2018-05-16T20:14:47.448Z,14.60
2018-05-16T20:17:51.557Z,14.46
2018-05-16T20:20:54.887Z,14.25
2018-05-16T20:23:58.172Z,14.17
2018-05-16T20:27:01.618Z,14.09
2018-05-16T20:30:05.809Z,14.03
2018-05-16T20:33:09.157Z,13.91
2018-05-16T20:36:13.805Z,13.77
2018-05-16T20:39:17.153Z,13.59
2018-05-16T20:42:20.726Z,13.52
2018-05-16T20:45:24.124Z,13.38
2018-05-16T20:48:27.386Z,13.25
2018-05-16T20:51:30.678Z,13.10
2018-05-16T20:54:34.049Z,13.13
2018-05-16T20:57:37.429Z,13.04
2018-05-16T21:00:40.768Z,12.87
2018-05-16T21:03:44.111Z,12.71
2018-05-16T21:06:47.463Z,12.57
2018-05-16T21:09:50.844Z,12.57
2018-05-16T21:12:55.042Z,12.49
2018-05-16T21:15:58.438Z,12.41
2018-05-16T21:19:02.057Z,12.38
2018-05-16T21:22:06.521Z,12.30
2018-05-16T21:25:09.987Z,12.19
2018-05-16T21:28:13.506Z,12.10
2018-05-16T21:31:17.043Z,12.15
2018-05-16T21:34:20.598Z,12.21
2018-05-16T21:37:24.361Z,12.01
2018-05-16T21:40:27.908Z,11.96
2018-05-16T21:43:31.713Z,11.89
2018-05-16T21:46:35.062Z,11.84
2018-05-16T21:49:38.647Z,11.72
2018-05-16T21:52:42.262Z,11.62
2018-05-16T21:55:46.073Z,11.58
2018-05-16T21:58:49.446Z,11.51
2018-05-16T22:01:52.781Z,11.46
2018-05-16T22:04:56.111Z,11.38
2018-05-16T22:08:00.257Z,11.30
2018-05-16T22:11:04.033Z,11.24
2018-05-16T22:14:07.381Z,11.18
2018-05-16T22:17:10.731Z,11.09
2018-05-16T22:20:14.027Z,11.01
2018-05-16T22:23:17.391Z,10.99
2018-05-16T22:26:21.482Z,11.06
2018-05-16T22:29:25.429Z,11.09
2018-05-16T22:32:35.061Z,11.08
2018-05-16T22:35:44.775Z,11.01
2018-05-16T22:38:53.631Z,11.01
2018-05-16T22:42:03.331Z,11.06
2018-05-16T22:48:47.402Z,11.15
2018-05-16T22:51:50.812Z,11.12
2018-05-16T22:54:54.153Z,11.05
2018-05-16T22:57:58.277Z,11.09
2018-05-16T23:01:01.572Z,11.10
2018-05-16T23:04:04.933Z,11.02
2018-05-16T23:07:08.265Z,10.94
2018-05-16T23:10:11.622Z,10.90
2018-05-16T23:13:14.977Z,10.89
2018-05-16T23:16:18.315Z,10.92
2018-05-16T23:19:21.645Z,10.90
2018-05-16T23:22:25.823Z,10.90
2018-05-16T23:25:29.126Z,10.92
2018-05-16T23:28:33.330Z,10.91
2018-05-16T23:31:36.734Z,10.84
2018-05-16T23:34:40.141Z,10.83
2018-05-16T23:37:43.537Z,10.84
2018-05-16T23:40:46.906Z,10.80
2018-05-16T23:43:50.247Z,10.77
2018-05-16T23:46:54.458Z,10.68
2018-05-16T23:49:58.563Z,10.68
2018-05-16T23:53:01.982Z,10.64
2018-05-16T23:56:06.062Z,10.63
2018-05-16T23:59:09.402Z,10.52
